createdAt,value
2022-12-25T00:00:37.196Z,31.74
2022-12-25T00:01:37.136Z,33.43
2022-12-25T00:02:37.355Z,32.80
2022-12-25T00:03:39.077Z,31.73
2022-12-25T00:04:37.167Z,35.16
2022-12-25T00:05:37.939Z,32.45
2022-12-25T00:06:37.167Z,32.66
2022-12-25T00:07:37.112Z,29.93
2022-12-25T00:08:37.212Z,30.27
2022-12-25T00:09:37.123Z,31.54
2022-12-25T00:10:43.036Z,32.48
2022-12-25T00:11:38.163Z,32.70
2022-12-25T00:12:37.232Z,32.69
2022-12-25T00:13:37.125Z,33.40
2022-12-25T00:14:37.131Z,32.60
2022-12-25T00:15:37.107Z,31.30
2022-12-25T00:16:37.138Z,34.06
2022-12-25T00:17:37.268Z,32.85
2022-12-25T00:18:37.092Z,29.01
2022-12-25T00:19:37.083Z,32.56
2022-12-25T00:20:37.084Z,33.44
2022-12-25T00:21:37.193Z,34.08
2022-12-25T00:22:37.140Z,33.45
2022-12-25T00:23:37.047Z,32.12
2022-12-25T00:24:37.053Z,31.04
2022-12-25T00:25:37.090Z,33.41
2022-12-25T00:26:37.069Z,31.00
2022-12-25T00:27:37.069Z,33.06
2022-12-25T00:28:37.048Z,32.54
2022-12-25T00:29:37.060Z,31.95
2022-12-25T00:30:37.128Z,33.91
2022-12-25T00:31:37.132Z,31.93
2022-12-25T00:32:37.104Z,34.69
2022-12-25T00:33:37.044Z,32.99
2022-12-25T00:34:37.023Z,33.88
2022-12-25T00:35:38.690Z,33.44
2022-12-25T00:36:41.713Z,32.28
2022-12-25T00:37:38.143Z,32.51
2022-12-25T00:38:37.037Z,32.58
2022-12-25T00:39:37.041Z,31.05
2022-12-25T00:40:37.041Z,33.86
2022-12-25T00:41:37.058Z,34.20
2022-12-25T00:42:37.038Z,31.80
2022-12-25T00:43:37.034Z,33.40
2022-12-25T00:44:37.008Z,31.07
2022-12-25T00:45:37.075Z,31.98
2022-12-25T00:46:37.087Z,34.63
2022-12-25T00:47:37.061Z,34.70
2022-12-25T00:48:36.981Z,34.46
2022-12-25T00:49:36.998Z,33.97
2022-12-25T00:50:37.009Z,32.45
2022-12-25T00:51:37.009Z,33.91
2022-12-25T00:52:36.980Z,30.86
2022-12-25T00:53:36.998Z,29.97
2022-12-25T00:54:37.003Z,31.48
2022-12-25T00:55:37.124Z,30.30
2022-12-25T00:56:36.993Z,31.71
2022-12-25T00:57:36.985Z,33.12
2022-12-25T00:58:36.965Z,32.53
2022-12-25T00:59:44.494Z,32.64
2022-12-25T01:00:37.058Z,33.09
2022-12-25T01:01:37.074Z,32.96
2022-12-25T01:02:37.180Z,33.61
2022-12-25T01:03:37.027Z,33.82
2022-12-25T01:04:37.035Z,35.48
2022-12-25T01:05:37.034Z,31.31
2022-12-25T01:06:37.004Z,32.11
2022-12-25T01:07:37.012Z,32.71
2022-12-25T01:08:37.040Z,29.59
2022-12-25T01:09:37.036Z,30.26
2022-12-25T01:10:37.016Z,33.92
2022-12-25T01:11:37.073Z,33.96
2022-12-25T01:12:37.041Z,33.35
2022-12-25T01:13:37.007Z,32.47
2022-12-25T01:14:37.059Z,31.13
2022-12-25T01:15:37.036Z,31.84
2022-12-25T01:16:37.041Z,30.49
2022-12-25T01:17:37.008Z,32.24
2022-12-25T01:18:36.987Z,33.01
2022-12-25T01:19:37.011Z,31.93
2022-12-25T01:20:37.034Z,32.93
2022-12-25T01:21:37.010Z,30.50
2022-12-25T01:22:37.013Z,31.62
2022-12-25T01:23:36.991Z,32.65
2022-12-25T01:24:36.970Z,31.40
2022-12-25T01:25:36.971Z,31.29
2022-12-25T01:26:36.964Z,32.67
2022-12-25T01:27:37.000Z,31.57
2022-12-25T01:28:36.946Z,29.56
2022-12-25T01:29:36.976Z,32.41
2022-12-25T01:30:36.923Z,29.86
2022-12-25T01:31:37.069Z,30.93
2022-12-25T01:32:36.957Z,31.17
2022-12-25T01:33:36.968Z,31.86
2022-12-25T01:34:36.966Z,32.54
2022-12-25T01:35:37.005Z,31.98
2022-12-25T01:36:36.980Z,33.00
2022-12-25T01:37:36.987Z,30.73
2022-12-25T01:38:36.937Z,29.04
2022-12-25T01:39:36.973Z,32.95
2022-12-25T01:40:36.982Z,32.44
2022-12-25T01:41:36.981Z,31.69
2022-12-25T01:42:36.967Z,30.27
2022-12-25T01:43:36.999Z,30.88
2022-12-25T01:44:36.978Z,32.11
2022-12-25T01:45:37.065Z,31.70
2022-12-25T01:46:36.986Z,31.08
2022-12-25T01:47:36.997Z,27.56
2022-12-25T01:48:37.012Z,33.10
2022-12-25T01:49:37.028Z,31.64
2022-12-25T01:50:37.017Z,32.74
2022-12-25T01:51:37.034Z,31.77
2022-12-25T01:52:37.019Z,33.43
2022-12-25T01:53:36.996Z,29.08
2022-12-25T01:54:37.012Z,33.74
2022-12-25T01:55:37.067Z,31.35
2022-12-25T01:56:37.015Z,32.35
2022-12-25T01:57:37.030Z,31.60
2022-12-25T01:58:37.023Z,33.15
2022-12-25T01:59:37.019Z,30.47
2022-12-25T02:00:37.088Z,33.65
2022-12-25T02:01:37.178Z,32.23
2022-12-25T02:02:37.138Z,32.62
2022-12-25T02:03:37.080Z,32.05
2022-12-25T02:04:37.025Z,32.88
2022-12-25T02:05:37.054Z,32.16
2022-12-25T02:06:37.059Z,31.01
2022-12-25T02:07:37.064Z,31.13
2022-12-25T02:08:37.047Z,32.29
2022-12-25T02:09:37.076Z,32.53
2022-12-25T02:10:37.089Z,33.07
2022-12-25T02:11:37.098Z,31.38
2022-12-25T02:12:37.076Z,32.37
2022-12-25T02:13:37.088Z,33.46
2022-12-25T02:14:37.095Z,33.22
2022-12-25T02:15:37.110Z,28.79
2022-12-25T02:16:56.752Z,30.50
2022-12-25T02:17:38.135Z,30.87
2022-12-25T02:18:37.112Z,31.35
2022-12-25T02:19:37.127Z,31.00
2022-12-25T02:20:37.091Z,31.06
2022-12-25T02:21:37.113Z,32.81
2022-12-25T02:22:37.131Z,33.05
2022-12-25T02:23:37.127Z,31.84
2022-12-25T02:24:37.103Z,34.27
2022-12-25T02:25:37.139Z,33.12
2022-12-25T02:26:37.119Z,31.33
2022-12-25T02:27:37.169Z,31.83
2022-12-25T02:28:37.122Z,32.43
2022-12-25T02:29:37.168Z,31.50
2022-12-25T02:30:37.154Z,32.20
2022-12-25T02:31:37.247Z,33.38
2022-12-25T02:32:37.179Z,30.22
2022-12-25T02:33:37.206Z,33.84
2022-12-25T02:34:37.202Z,31.13
2022-12-25T02:35:37.225Z,30.01
2022-12-25T02:36:37.215Z,33.28
2022-12-25T02:37:37.206Z,30.14
2022-12-25T02:38:37.196Z,34.51
2022-12-25T02:39:37.255Z,30.99
2022-12-25T02:40:37.245Z,31.79
2022-12-25T02:41:37.258Z,32.02
2022-12-25T02:42:37.237Z,31.71
2022-12-25T02:43:37.255Z,32.32
2022-12-25T02:44:37.272Z,32.36
2022-12-25T02:45:37.304Z,31.19
2022-12-25T02:46:37.265Z,30.03
2022-12-25T02:47:37.286Z,31.82
2022-12-25T02:48:37.275Z,30.94
2022-12-25T02:49:37.280Z,33.65
2022-12-25T02:50:37.279Z,31.06
2022-12-25T02:51:37.307Z,32.77
2022-12-25T02:52:37.277Z,30.27
2022-12-25T02:53:37.305Z,33.11
2022-12-25T02:54:37.289Z,31.83
2022-12-25T02:55:37.310Z,32.20
2022-12-25T02:56:37.273Z,32.17
2022-12-25T02:57:37.307Z,31.32
2022-12-25T02:58:37.279Z,32.93
2022-12-25T02:59:37.313Z,30.32
2022-12-25T03:00:37.313Z,31.02
2022-12-25T03:01:37.464Z,29.96
2022-12-25T03:02:37.312Z,31.34
2022-12-25T03:03:37.351Z,31.51
2022-12-25T03:04:37.306Z,28.94
2022-12-25T03:05:37.334Z,30.69
2022-12-25T03:06:37.343Z,31.62
2022-12-25T03:07:37.327Z,29.63
2022-12-25T03:08:37.325Z,29.55
2022-12-25T03:09:37.348Z,31.30
2022-12-25T03:10:37.348Z,31.99
2022-12-25T03:11:37.336Z,31.20
2022-12-25T03:12:37.350Z,32.19
2022-12-25T03:13:37.378Z,31.05
2022-12-25T03:14:37.339Z,29.76
2022-12-25T03:15:37.347Z,30.68
2022-12-25T03:16:37.399Z,30.01
2022-12-25T03:17:37.388Z,27.92
2022-12-25T03:18:37.380Z,29.52
2022-12-25T03:19:37.396Z,31.13
2022-12-25T03:20:37.361Z,29.08
2022-12-25T03:21:37.393Z,31.59
2022-12-25T03:22:37.382Z,31.98
2022-12-25T03:23:37.410Z,30.01
2022-12-25T03:24:37.410Z,31.32
2022-12-25T03:25:37.431Z,29.48
2022-12-25T03:26:37.423Z,29.18
2022-12-25T03:27:37.439Z,31.70
2022-12-25T03:28:37.411Z,30.24
2022-12-25T03:29:37.422Z,31.04
2022-12-25T03:30:37.440Z,30.84
2022-12-25T03:31:37.442Z,30.86
2022-12-25T03:32:37.403Z,29.92
2022-12-25T03:33:44.950Z,32.15
2022-12-25T03:34:38.447Z,32.37
2022-12-25T03:35:37.441Z,32.16
2022-12-25T03:36:37.496Z,32.31
2022-12-25T03:37:37.468Z,31.93
2022-12-25T03:38:37.489Z,29.75
2022-12-25T03:39:37.501Z,31.71
2022-12-25T03:40:37.500Z,30.08
2022-12-25T03:41:37.488Z,32.10
2022-12-25T03:42:37.535Z,30.22
2022-12-25T03:43:37.533Z,30.21
2022-12-25T03:44:37.542Z,30.60
2022-12-25T03:45:37.538Z,29.74
2022-12-25T03:46:37.639Z,30.30
2022-12-25T03:47:37.594Z,31.05
2022-12-25T03:48:37.577Z,29.06
2022-12-25T03:49:37.547Z,30.59
2022-12-25T03:50:37.570Z,29.28
2022-12-25T03:51:37.580Z,27.82
2022-12-25T03:52:37.631Z,29.28
2022-12-25T03:53:37.592Z,29.76
2022-12-25T03:54:37.632Z,29.50
2022-12-25T03:55:37.662Z,28.69
2022-12-25T03:56:37.675Z,28.17
2022-12-25T03:57:37.654Z,27.33
2022-12-25T03:58:37.643Z,27.72
2022-12-25T03:59:37.655Z,28.46
2022-12-25T04:00:37.696Z,29.90
2022-12-25T04:01:37.758Z,28.54
2022-12-25T04:02:37.863Z,28.57
2022-12-25T04:03:37.813Z,29.12
2022-12-25T04:04:37.719Z,29.93
2022-12-25T04:05:37.686Z,29.77
2022-12-25T04:06:37.707Z,27.97
2022-12-25T04:07:37.708Z,28.00
2022-12-25T04:08:37.739Z,28.80
2022-12-25T04:09:37.731Z,30.02
2022-12-25T04:10:37.770Z,28.86
2022-12-25T04:11:37.723Z,29.93
2022-12-25T04:12:37.773Z,29.33
2022-12-25T04:13:37.789Z,28.19
2022-12-25T04:14:37.806Z,29.23
2022-12-25T04:15:37.856Z,30.64
2022-12-25T04:16:37.802Z,28.63
2022-12-25T04:17:37.795Z,30.04
2022-12-25T04:18:37.837Z,28.25
2022-12-25T04:19:37.819Z,28.51
2022-12-25T04:20:37.822Z,28.80
2022-12-25T04:21:37.837Z,29.15
2022-12-25T04:22:37.851Z,27.97
2022-12-25T04:23:37.860Z,28.79
2022-12-25T04:24:37.861Z,30.96
2022-12-25T04:25:37.891Z,27.54
2022-12-25T04:26:37.913Z,30.23
2022-12-25T04:27:37.861Z,28.10
2022-12-25T04:28:37.908Z,30.35
2022-12-25T04:29:37.907Z,29.08
2022-12-25T04:30:37.910Z,30.18
2022-12-25T04:31:37.953Z,28.42
2022-12-25T04:32:37.908Z,28.69
2022-12-25T04:33:37.933Z,32.35
2022-12-25T04:34:37.955Z,30.84
2022-12-25T04:35:37.927Z,28.30
2022-12-25T04:36:38.003Z,28.33
2022-12-25T04:37:37.958Z,30.88
2022-12-25T04:38:37.966Z,29.06
2022-12-25T04:39:37.981Z,27.24
2022-12-25T04:40:37.988Z,29.49
2022-12-25T04:41:37.966Z,31.51
2022-12-25T04:42:38.031Z,28.95
2022-12-25T04:43:38.012Z,29.56
2022-12-25T04:44:38.022Z,27.49
2022-12-25T04:45:38.017Z,30.59
2022-12-25T04:46:38.078Z,27.69
2022-12-25T04:47:38.032Z,27.34
2022-12-25T04:48:38.060Z,28.22
2022-12-25T04:49:38.039Z,26.54
2022-12-25T04:50:38.050Z,28.89
2022-12-25T04:51:38.048Z,29.39
2022-12-25T04:52:38.058Z,28.85
2022-12-25T04:53:38.050Z,28.56
2022-12-25T04:54:38.077Z,29.16
2022-12-25T04:55:38.075Z,29.84
2022-12-25T04:56:43.396Z,26.94
2022-12-25T04:57:39.107Z,27.25
2022-12-25T04:58:38.069Z,27.17
2022-12-25T04:59:38.120Z,27.80
2022-12-25T05:00:38.078Z,28.01
2022-12-25T05:01:38.273Z,28.42
2022-12-25T05:02:38.344Z,27.05
2022-12-25T05:03:38.190Z,28.12
2022-12-25T05:04:38.131Z,30.74
2022-12-25T05:05:38.137Z,30.07
2022-12-25T05:06:38.121Z,27.59
2022-12-25T05:07:38.183Z,28.53
2022-12-25T05:08:38.143Z,28.41
2022-12-25T05:09:38.182Z,28.67
2022-12-25T05:10:38.174Z,26.87
2022-12-25T05:11:38.225Z,28.59
2022-12-25T05:12:38.191Z,26.83
2022-12-25T05:13:38.251Z,28.18
2022-12-25T05:14:38.200Z,29.35
2022-12-25T05:15:38.219Z,29.16
2022-12-25T05:16:38.171Z,28.32
2022-12-25T05:17:38.235Z,28.93
2022-12-25T05:18:38.218Z,29.08
2022-12-25T05:19:38.243Z,27.55
2022-12-25T05:20:40.486Z,28.75
2022-12-25T05:21:38.276Z,30.16
2022-12-25T05:22:38.242Z,27.48
2022-12-25T05:23:38.278Z,29.10
2022-12-25T05:24:38.245Z,28.46
2022-12-25T05:25:38.306Z,32.42
2022-12-25T05:26:38.280Z,27.69
2022-12-25T05:27:38.325Z,27.23
2022-12-25T05:28:38.298Z,30.43
2022-12-25T05:29:38.340Z,26.83
2022-12-25T05:30:38.340Z,27.74
2022-12-25T05:31:38.432Z,29.46
2022-12-25T05:32:38.355Z,28.61
2022-12-25T05:33:38.401Z,28.98
2022-12-25T05:34:38.382Z,29.19
2022-12-25T05:35:38.401Z,27.41
2022-12-25T05:36:38.392Z,28.31
2022-12-25T05:37:38.424Z,30.65
2022-12-25T05:38:38.402Z,28.19
2022-12-25T05:39:38.461Z,28.24
2022-12-25T05:40:38.419Z,29.73
2022-12-25T05:41:38.479Z,27.84
2022-12-25T05:42:38.444Z,26.55
2022-12-25T05:43:38.501Z,29.23
2022-12-25T05:44:38.461Z,27.11
2022-12-25T05:45:38.491Z,31.23
2022-12-25T05:46:38.530Z,28.40
2022-12-25T05:47:38.521Z,27.92
2022-12-25T05:48:38.529Z,30.04
2022-12-25T05:49:38.535Z,29.48
2022-12-25T05:50:38.543Z,30.18
2022-12-25T05:51:38.587Z,28.56
2022-12-25T05:52:38.563Z,28.84
2022-12-25T05:53:38.608Z,27.55
2022-12-25T05:54:38.581Z,27.50
2022-12-25T05:55:38.619Z,27.28
2022-12-25T05:56:38.629Z,30.07
2022-12-25T05:57:38.643Z,26.77
2022-12-25T05:58:38.638Z,30.19
2022-12-25T05:59:38.697Z,28.71
2022-12-25T06:00:38.637Z,27.21
2022-12-25T06:01:38.849Z,26.81
2022-12-25T06:02:38.850Z,28.52
2022-12-25T06:03:38.752Z,28.22
2022-12-25T06:04:38.689Z,29.02
2022-12-25T06:05:38.739Z,27.70
2022-12-25T06:06:38.667Z,27.91
2022-12-25T06:07:38.729Z,27.45
2022-12-25T06:08:38.728Z,25.62
2022-12-25T06:09:38.756Z,29.08
2022-12-25T06:10:38.730Z,27.15
2022-12-25T06:11:38.773Z,27.27
2022-12-25T06:12:38.786Z,28.00
2022-12-25T06:13:38.789Z,28.59
2022-12-25T06:14:38.798Z,26.96
2022-12-25T06:15:38.818Z,28.85
2022-12-25T06:16:38.822Z,28.24
2022-12-25T06:17:38.846Z,27.07
2022-12-25T06:18:38.812Z,26.62
2022-12-25T06:19:38.857Z,28.92
2022-12-25T06:20:38.825Z,28.18
2022-12-25T06:21:38.890Z,29.01
2022-12-25T06:22:38.874Z,29.54
2022-12-25T06:23:38.928Z,29.15
2022-12-25T06:24:38.849Z,27.38
2022-12-25T06:25:38.906Z,26.55
2022-12-25T06:26:38.854Z,27.83
2022-12-25T06:27:38.893Z,28.98
2022-12-25T06:28:38.877Z,28.96
2022-12-25T06:29:38.929Z,25.61
2022-12-25T06:30:38.920Z,29.94
2022-12-25T06:31:38.944Z,28.87
2022-12-25T06:32:38.900Z,28.18
2022-12-25T06:33:38.947Z,30.12
2022-12-25T06:34:38.941Z,30.03
2022-12-25T06:35:38.961Z,30.52
2022-12-25T06:36:38.951Z,29.57
2022-12-25T06:37:39.021Z,33.01
2022-12-25T06:38:38.966Z,30.12
2022-12-25T06:39:39.004Z,31.73
2022-12-25T06:40:38.964Z,30.15
2022-12-25T06:41:39.023Z,30.97
2022-12-25T06:42:38.998Z,29.19
2022-12-25T06:43:39.038Z,28.72
2022-12-25T06:44:39.019Z,31.13
2022-12-25T06:45:39.068Z,30.63
2022-12-25T06:46:38.999Z,27.78
2022-12-25T06:47:39.086Z,30.14
2022-12-25T06:48:39.044Z,29.18
2022-12-25T06:49:39.070Z,30.71
2022-12-25T06:50:39.039Z,29.32
2022-12-25T06:51:39.076Z,28.79
2022-12-25T06:52:39.091Z,29.23
2022-12-25T06:53:39.794Z,31.37
2022-12-25T06:54:39.042Z,32.14
2022-12-25T06:55:39.103Z,27.10
2022-12-25T06:56:39.075Z,27.59
2022-12-25T06:57:39.112Z,32.83
2022-12-25T06:58:39.131Z,29.74
2022-12-25T06:59:39.121Z,32.05
2022-12-25T07:00:47.997Z,29.48
2022-12-25T07:01:39.351Z,30.06
2022-12-25T07:02:39.386Z,30.57
2022-12-25T07:03:39.180Z,30.43
2022-12-25T07:04:39.239Z,32.95
2022-12-25T07:05:39.387Z,33.33
2022-12-25T07:06:39.256Z,30.09
2022-12-25T07:07:39.263Z,32.09
2022-12-25T07:08:39.280Z,32.94
2022-12-25T07:09:39.467Z,30.50
2022-12-25T07:10:39.392Z,32.85
2022-12-25T07:11:39.298Z,30.05
2022-12-25T07:12:39.327Z,29.38
2022-12-25T07:13:39.329Z,32.95
2022-12-25T07:14:39.358Z,33.03
2022-12-25T07:15:39.393Z,34.85
2022-12-25T07:16:39.397Z,33.64
2022-12-25T07:17:39.359Z,33.54
2022-12-25T07:18:40.379Z,36.08
2022-12-25T07:19:44.676Z,38.58
2022-12-25T07:20:40.416Z,38.73
2022-12-25T07:21:39.383Z,38.88
2022-12-25T07:22:39.417Z,37.76
2022-12-25T07:23:39.441Z,35.74
2022-12-25T07:24:39.455Z,37.61
2022-12-25T07:25:39.437Z,39.62
2022-12-25T07:26:39.415Z,40.96
2022-12-25T07:27:39.406Z,37.73
2022-12-25T07:28:39.517Z,37.27
2022-12-25T07:29:39.418Z,38.62
2022-12-25T07:30:39.408Z,41.46
2022-12-25T07:31:39.531Z,37.73
2022-12-25T07:32:39.422Z,38.42
2022-12-25T07:33:39.429Z,40.13
2022-12-25T07:34:39.445Z,40.09
2022-12-25T07:35:39.607Z,37.60
2022-12-25T07:36:39.417Z,37.92
2022-12-25T07:37:39.437Z,41.65
2022-12-25T07:38:40.654Z,40.55
2022-12-25T07:39:40.361Z,40.09
2022-12-25T07:40:39.428Z,39.02
2022-12-25T07:41:39.387Z,34.83
2022-12-25T07:42:39.395Z,37.73
2022-12-25T07:43:39.373Z,37.40
2022-12-25T07:44:41.391Z,36.33
2022-12-25T07:45:39.373Z,37.31
2022-12-25T07:46:39.487Z,39.96
2022-12-25T07:47:39.334Z,40.21
2022-12-25T07:48:39.886Z,37.64
2022-12-25T07:49:39.388Z,40.30
2022-12-25T07:50:39.335Z,38.71
2022-12-25T07:51:39.400Z,40.28
2022-12-25T07:52:43.490Z,39.17
2022-12-25T07:53:39.284Z,39.42
2022-12-25T07:54:40.515Z,39.62
2022-12-25T07:55:39.269Z,39.42
2022-12-25T07:56:39.273Z,35.72
2022-12-25T07:57:39.458Z,37.58
2022-12-25T07:58:39.264Z,33.95
2022-12-25T07:59:39.231Z,38.48
2022-12-25T08:00:39.267Z,40.72
2022-12-25T08:01:39.301Z,36.07
2022-12-25T08:02:39.458Z,37.96
2022-12-25T08:03:39.301Z,37.41
2022-12-25T08:04:39.420Z,37.74
2022-12-25T08:05:39.162Z,34.68
2022-12-25T08:06:39.178Z,38.60
2022-12-25T08:07:39.126Z,37.91
2022-12-25T08:08:39.228Z,36.64
2022-12-25T08:09:39.123Z,37.10
2022-12-25T08:10:39.144Z,36.79
2022-12-25T08:11:39.086Z,35.49
2022-12-25T08:12:39.096Z,38.19
2022-12-25T08:13:39.067Z,37.89
2022-12-25T08:14:39.136Z,39.10
2022-12-25T08:15:39.056Z,34.99
2022-12-25T08:16:39.126Z,35.07
2022-12-25T08:17:39.013Z,34.38
2022-12-25T08:18:39.058Z,34.56
2022-12-25T08:19:39.106Z,36.66
2022-12-25T08:20:39.035Z,34.32
2022-12-25T08:21:39.117Z,35.51
2022-12-25T08:22:38.974Z,33.72
2022-12-25T08:23:38.964Z,35.58
2022-12-25T08:24:39.030Z,35.91
2022-12-25T08:25:38.923Z,33.69
2022-12-25T08:26:38.950Z,35.05
2022-12-25T08:27:38.946Z,34.79
2022-12-25T08:28:38.942Z,34.55
2022-12-25T08:29:38.987Z,33.49
2022-12-25T08:30:39.109Z,33.22
2022-12-25T08:31:45.694Z,34.95
2022-12-25T08:32:39.883Z,35.19
2022-12-25T08:33:38.836Z,35.06
2022-12-25T08:34:38.862Z,35.57
2022-12-25T08:35:38.843Z,32.96
2022-12-25T08:36:38.846Z,30.90
2022-12-25T08:37:38.794Z,34.70
2022-12-25T08:38:38.808Z,33.15
2022-12-25T08:39:38.790Z,31.75
2022-12-25T08:40:38.821Z,33.04
2022-12-25T08:41:38.734Z,31.65
2022-12-25T08:42:38.775Z,33.42
2022-12-25T08:43:38.780Z,33.46
2022-12-25T08:44:38.787Z,33.14
2022-12-25T08:45:38.682Z,34.64
2022-12-25T08:46:38.769Z,31.85
2022-12-25T08:47:38.672Z,30.47
2022-12-25T08:48:38.836Z,32.49
2022-12-25T08:49:38.641Z,33.87
2022-12-25T08:50:38.713Z,32.03
2022-12-25T08:51:38.644Z,31.26
2022-12-25T08:52:38.646Z,33.48
2022-12-25T08:53:38.626Z,32.81
2022-12-25T08:54:38.627Z,30.85
2022-12-25T08:55:38.596Z,31.46
2022-12-25T08:56:38.627Z,28.53
2022-12-25T08:57:38.624Z,26.96
2022-12-25T08:58:38.588Z,32.36
2022-12-25T08:59:38.513Z,33.01
2022-12-25T09:00:38.538Z,30.17
2022-12-25T09:01:38.620Z,28.82
2022-12-25T09:02:38.857Z,32.23
2022-12-25T09:03:38.519Z,29.09
2022-12-25T09:04:38.560Z,30.00
2022-12-25T09:05:38.440Z,31.54
2022-12-25T09:06:38.486Z,27.42
2022-12-25T09:07:38.519Z,27.59
2022-12-25T09:08:44.012Z,30.67
2022-12-25T09:09:39.407Z,30.91
2022-12-25T09:10:38.385Z,31.23
2022-12-25T09:11:38.387Z,29.46
2022-12-25T09:12:38.361Z,29.27
2022-12-25T09:13:38.638Z,31.37
2022-12-25T09:14:38.464Z,28.11
2022-12-25T09:15:38.379Z,30.18
2022-12-25T09:16:38.330Z,29.01
2022-12-25T09:17:38.320Z,27.54
2022-12-25T09:18:38.335Z,32.71
2022-12-25T09:19:38.444Z,28.33
2022-12-25T09:20:38.259Z,31.25
2022-12-25T09:21:38.298Z,28.98
2022-12-25T09:22:38.242Z,29.37
2022-12-25T09:23:38.288Z,29.30
2022-12-25T09:24:38.281Z,28.02
2022-12-25T09:25:38.290Z,27.33
2022-12-25T09:26:38.225Z,29.39
2022-12-25T09:27:38.228Z,28.88
2022-12-25T09:28:38.335Z,28.72
2022-12-25T09:29:38.198Z,28.28
2022-12-25T09:30:38.208Z,28.51
2022-12-25T09:31:38.303Z,27.40
2022-12-25T09:32:38.140Z,30.06
2022-12-25T09:33:38.151Z,27.84
2022-12-25T09:34:38.658Z,26.19
2022-12-25T09:35:38.127Z,25.00
2022-12-25T09:36:38.117Z,29.52
2022-12-25T09:37:38.218Z,28.05
2022-12-25T09:38:38.073Z,27.68
2022-12-25T09:39:45.837Z,28.34
2022-12-25T09:40:39.089Z,28.72
2022-12-25T09:41:38.025Z,29.19
2022-12-25T09:42:38.076Z,29.12
2022-12-25T09:43:38.128Z,29.79
2022-12-25T09:44:38.064Z,29.32
2022-12-25T09:45:38.003Z,27.94
2022-12-25T09:46:38.072Z,27.51
2022-12-25T09:47:37.979Z,27.48
2022-12-25T09:48:38.880Z,25.00
2022-12-25T09:49:37.959Z,28.66
2022-12-25T09:50:37.997Z,26.53
2022-12-25T09:51:37.969Z,26.80
2022-12-25T09:52:37.976Z,25.00
2022-12-25T09:53:37.906Z,27.23
2022-12-25T09:54:37.956Z,30.11
2022-12-25T09:55:37.895Z,25.29
2022-12-25T09:56:37.943Z,29.09
2022-12-25T09:57:37.892Z,27.28
2022-12-25T09:58:37.912Z,28.21
2022-12-25T09:59:37.861Z,27.20
2022-12-25T10:00:37.978Z,28.13
2022-12-25T10:01:38.672Z,25.61
2022-12-25T10:02:38.340Z,26.92
2022-12-25T10:03:37.878Z,26.10
2022-12-25T10:04:40.971Z,27.33
2022-12-25T10:05:37.844Z,27.49
2022-12-25T10:06:37.873Z,28.17
2022-12-25T10:07:37.802Z,28.70
2022-12-25T10:08:37.840Z,31.33
2022-12-25T10:09:37.802Z,31.53
2022-12-25T10:10:37.853Z,30.70
2022-12-25T10:11:37.768Z,31.75
2022-12-25T10:12:37.795Z,34.58
2022-12-25T10:13:37.891Z,33.47
2022-12-25T10:14:37.793Z,34.07
2022-12-25T10:15:43.384Z,32.44
2022-12-25T10:16:39.733Z,32.81
2022-12-25T10:17:37.743Z,32.75
2022-12-25T10:18:37.784Z,33.39
2022-12-25T10:19:37.759Z,33.26
2022-12-25T10:20:37.762Z,33.75
2022-12-25T10:21:37.739Z,33.49
2022-12-25T10:22:37.797Z,32.19
2022-12-25T10:23:37.726Z,32.41
2022-12-25T10:24:37.758Z,33.91
2022-12-25T10:25:37.726Z,32.76
2022-12-25T10:26:37.749Z,35.64
2022-12-25T10:27:37.721Z,36.79
2022-12-25T10:28:37.772Z,32.42
2022-12-25T10:29:37.669Z,37.90
2022-12-25T10:30:39.158Z,33.25
2022-12-25T10:31:37.762Z,33.51
2022-12-25T10:32:37.741Z,33.59
2022-12-25T10:33:37.680Z,33.85
2022-12-25T10:34:37.709Z,35.24
2022-12-25T10:35:37.678Z,34.24
2022-12-25T10:36:37.724Z,36.58
2022-12-25T10:37:37.644Z,34.13
2022-12-25T10:38:37.687Z,35.00
2022-12-25T10:39:42.433Z,35.50
2022-12-25T10:40:39.166Z,35.93
2022-12-25T10:41:37.644Z,34.42
2022-12-25T10:42:37.677Z,35.78
2022-12-25T10:43:37.732Z,35.63
2022-12-25T10:44:37.672Z,35.28
2022-12-25T10:45:37.604Z,34.52
2022-12-25T10:46:37.681Z,34.11
2022-12-25T10:47:37.652Z,30.69
2022-12-25T10:48:37.711Z,31.37
2022-12-25T10:49:37.780Z,32.54
2022-12-25T10:50:37.668Z,31.95
2022-12-25T10:51:37.649Z,33.51
2022-12-25T10:52:37.669Z,29.71
2022-12-25T10:53:37.602Z,30.85
2022-12-25T10:54:37.693Z,30.11
2022-12-25T10:55:37.635Z,30.57
2022-12-25T10:56:37.686Z,29.50
2022-12-25T10:57:37.779Z,29.17
2022-12-25T10:58:38.235Z,30.14
2022-12-25T10:59:37.601Z,28.79
2022-12-25T11:00:37.681Z,31.05
2022-12-25T11:01:37.697Z,29.28
2022-12-25T11:02:37.890Z,27.97
2022-12-25T11:03:37.663Z,29.00
2022-12-25T11:04:37.647Z,26.93
2022-12-25T11:05:37.629Z,26.93
2022-12-25T11:06:37.648Z,25.00
2022-12-25T11:07:37.618Z,27.32
2022-12-25T11:08:37.636Z,29.52
2022-12-25T11:09:37.603Z,28.01
2022-12-25T11:10:37.645Z,25.72
2022-12-25T11:11:37.573Z,26.00
2022-12-25T11:12:37.695Z,28.51
2022-12-25T11:13:37.591Z,28.30
2022-12-25T11:14:37.618Z,28.81
2022-12-25T11:15:37.641Z,28.38
2022-12-25T11:16:37.709Z,29.71
2022-12-25T11:17:37.728Z,27.37
2022-12-25T11:18:37.582Z,27.49
2022-12-25T11:19:37.522Z,26.44
2022-12-25T11:20:40.036Z,27.66
2022-12-25T11:21:37.545Z,27.94
2022-12-25T11:22:37.567Z,28.37
2022-12-25T11:23:37.560Z,28.41
2022-12-25T11:24:37.532Z,28.97
2022-12-25T11:25:37.504Z,29.13
2022-12-25T11:26:37.547Z,31.93
2022-12-25T11:27:37.499Z,26.75
2022-12-25T11:28:37.593Z,29.43
2022-12-25T11:29:37.584Z,28.68
2022-12-25T11:30:37.536Z,29.37
2022-12-25T11:31:37.576Z,28.06
2022-12-25T11:32:37.526Z,27.34
2022-12-25T11:33:37.457Z,30.13
2022-12-25T11:34:37.512Z,29.39
2022-12-25T11:35:37.482Z,27.57
2022-12-25T11:36:37.483Z,27.52
2022-12-25T11:37:37.454Z,28.06
2022-12-25T11:38:37.486Z,29.60
2022-12-25T11:39:37.467Z,27.63
2022-12-25T11:40:37.494Z,28.04
2022-12-25T11:41:37.443Z,28.39
2022-12-25T11:42:37.467Z,27.41
2022-12-25T11:43:37.522Z,29.10
2022-12-25T11:44:37.466Z,30.26
2022-12-25T11:45:37.459Z,30.45
2022-12-25T11:46:37.540Z,27.16
2022-12-25T11:47:37.459Z,29.60
2022-12-25T11:48:37.506Z,30.14
2022-12-25T11:49:37.571Z,29.63
2022-12-25T11:50:37.663Z,26.71
2022-12-25T11:51:37.524Z,25.93
2022-12-25T11:52:37.488Z,27.26
2022-12-25T11:53:37.433Z,25.95
2022-12-25T11:54:37.465Z,28.32
2022-12-25T11:55:37.448Z,29.96
2022-12-25T11:56:37.864Z,27.98
2022-12-25T11:57:37.449Z,26.41
2022-12-25T11:58:37.516Z,28.47
2022-12-25T11:59:37.447Z,26.55
2022-12-25T12:00:37.500Z,27.92
2022-12-25T12:01:37.637Z,28.36
2022-12-25T12:02:37.690Z,29.36
2022-12-25T12:03:37.621Z,30.77
2022-12-25T12:04:42.721Z,27.51
2022-12-25T12:05:38.503Z,27.84
2022-12-25T12:06:37.450Z,28.01
2022-12-25T12:07:37.483Z,27.79
2022-12-25T12:08:37.481Z,28.67
2022-12-25T12:09:37.516Z,31.44
2022-12-25T12:10:37.529Z,29.23
2022-12-25T12:11:37.527Z,29.07
2022-12-25T12:12:39.676Z,26.93
2022-12-25T12:13:37.642Z,27.17
2022-12-25T12:14:37.471Z,27.37
2022-12-25T12:15:37.553Z,27.59
2022-12-25T12:16:37.715Z,28.63
2022-12-25T12:17:37.646Z,25.17
2022-12-25T12:18:37.479Z,28.84
2022-12-25T12:19:37.516Z,27.72
2022-12-25T12:20:37.485Z,28.68
2022-12-25T12:21:37.524Z,27.77
2022-12-25T12:22:37.503Z,27.82
2022-12-25T12:23:37.543Z,29.67
2022-12-25T12:24:37.535Z,30.08
2022-12-25T12:25:37.550Z,27.75
2022-12-25T12:26:37.498Z,30.07
2022-12-25T12:27:37.628Z,27.75
2022-12-25T12:28:37.535Z,26.48
2022-12-25T12:29:37.567Z,28.36
2022-12-25T12:30:37.591Z,27.41
2022-12-25T12:31:37.650Z,30.95
2022-12-25T12:32:37.557Z,28.54
2022-12-25T12:33:37.568Z,29.26
2022-12-25T12:34:37.541Z,29.45
2022-12-25T12:35:37.578Z,27.96
2022-12-25T12:36:37.553Z,28.96
2022-12-25T12:37:37.618Z,29.62
2022-12-25T12:38:37.577Z,29.46
2022-12-25T12:39:37.636Z,30.55
2022-12-25T12:40:37.615Z,26.43
2022-12-25T12:41:38.279Z,28.17
2022-12-25T12:42:38.573Z,28.64
2022-12-25T12:43:37.639Z,34.16
2022-12-25T12:44:37.614Z,32.36
2022-12-25T12:45:37.769Z,28.65
2022-12-25T12:46:37.766Z,30.34
2022-12-25T12:47:37.770Z,31.24
2022-12-25T12:48:37.628Z,30.88
2022-12-25T12:49:38.487Z,29.03
2022-12-25T12:50:37.684Z,32.00
2022-12-25T12:51:37.658Z,30.23
2022-12-25T12:52:37.751Z,29.06